createdAt,value
2018-06-03T00:00:56.134Z,20.98
2018-06-03T00:03:22.353Z,20.99
2018-06-03T00:05:48.592Z,20.73
2018-06-03T00:08:14.815Z,20.53
2018-06-03T00:10:41.119Z,20.19
2018-06-03T00:13:07.324Z,20.36
2018-06-03T00:15:33.533Z,20.69
2018-06-03T00:17:59.733Z,20.58
2018-06-03T00:34:34.286Z,19.57
2018-06-03T00:37:02.570Z,19.61
2018-06-03T00:39:30.734Z,19.77
2018-06-03T00:41:59.213Z,20.11
2018-06-03T00:44:28.334Z,19.98
2018-06-03T00:46:56.693Z,19.80
2018-06-03T00:49:24.968Z,19.69
2018-06-03T00:51:53.249Z,19.54
2018-06-03T00:54:21.536Z,19.51
2018-06-03T00:57:00.870Z,19.60
2018-06-03T00:59:28.924Z,19.50
2018-06-03T01:01:57.205Z,19.26
2018-06-03T01:04:25.386Z,18.89
2018-06-03T01:06:53.672Z,18.51
2018-06-03T01:09:22.417Z,18.63
2018-06-03T01:11:50.612Z,18.49
2018-06-03T01:14:18.901Z,18.25
2018-06-03T01:16:47.069Z,18.40
2018-06-03T01:19:16.277Z,18.51
2018-06-03T01:21:44.449Z,18.35
2018-06-03T01:24:12.626Z,18.55
2018-06-03T01:26:40.901Z,18.52
2018-06-03T01:29:09.187Z,18.38
2018-06-03T01:31:37.450Z,18.26
2018-06-03T01:34:05.821Z,18.18
2018-06-03T01:36:34.025Z,18.30
2018-06-03T01:39:02.293Z,18.36
2018-06-03T01:41:30.659Z,18.40
2018-06-03T01:43:58.828Z,18.31
2018-06-03T01:46:27.013Z,18.41
2018-06-03T01:48:55.186Z,18.18
2018-06-03T01:51:23.370Z,18.50
2018-06-03T01:53:51.736Z,18.34
2018-06-03T01:56:19.874Z,18.37
2018-06-03T01:58:48.094Z,18.34
2018-06-03T02:01:16.252Z,18.08
2018-06-03T02:03:44.438Z,18.05
2018-06-03T02:06:12.925Z,17.97
2018-06-03T02:08:41.293Z,17.94
2018-06-03T02:11:09.481Z,17.88
2018-06-03T02:13:37.650Z,17.69
2018-06-03T02:16:06.026Z,17.75
2018-06-03T02:18:34.401Z,17.68
2018-06-03T02:21:02.677Z,17.37
2018-06-03T02:23:30.954Z,17.73
2018-06-03T02:25:59.224Z,17.75
2018-06-03T02:28:27.397Z,17.62
2018-06-03T02:30:55.585Z,17.88
2018-06-03T02:33:23.853Z,17.70
2018-06-03T02:35:52.144Z,17.64
2018-06-03T02:38:21.325Z,17.48
2018-06-03T02:40:49.609Z,17.39
2018-06-03T02:43:17.887Z,17.38
2018-06-03T02:45:46.364Z,17.23
2018-06-03T02:48:14.750Z,17.08
2018-06-03T02:50:43.024Z,16.84
2018-06-03T02:53:11.197Z,16.93
2018-06-03T02:55:39.485Z,17.05
2018-06-03T02:58:07.666Z,17.22
2018-06-03T03:00:36.038Z,17.28
2018-06-03T03:03:04.514Z,17.19
2018-06-03T03:05:32.799Z,17.28
2018-06-03T03:08:01.176Z,17.38
2018-06-03T03:10:29.462Z,17.19
2018-06-03T03:12:57.817Z,17.44
2018-06-03T03:15:26.102Z,17.32
2018-06-03T03:17:54.494Z,17.26
2018-06-03T03:20:23.328Z,17.24
2018-06-03T03:22:51.540Z,17.39
2018-06-03T03:25:19.817Z,17.52
2018-06-03T03:27:48.195Z,17.45
2018-06-03T03:30:16.581Z,17.58
2018-06-03T03:32:44.854Z,17.42
2018-06-03T03:35:13.247Z,17.31
2018-06-03T03:37:41.420Z,16.98
2018-06-03T03:40:09.785Z,17.10
2018-06-03T03:42:37.960Z,17.08
2018-06-03T03:45:06.357Z,16.87
2018-06-03T03:47:34.521Z,17.02
2018-06-03T03:50:02.697Z,17.07
2018-06-03T03:52:31.078Z,17.45
2018-06-03T03:54:59.251Z,17.37
2018-06-03T03:57:27.418Z,17.49
2018-06-03T03:59:55.715Z,17.72
2018-06-03T04:02:23.964Z,17.53
2018-06-03T04:04:52.254Z,17.41
2018-06-03T04:07:20.421Z,17.19
2018-06-03T04:09:48.595Z,17.43
2018-06-03T04:12:17.285Z,17.50
2018-06-03T04:14:45.496Z,17.77
2018-06-03T04:17:13.747Z,17.70
2018-06-03T04:19:42.018Z,17.86
2018-06-03T04:22:10.187Z,17.92
2018-06-03T04:24:38.358Z,17.98
2018-06-03T04:27:06.534Z,17.96
2018-06-03T04:29:34.916Z,17.67
2018-06-03T04:32:03.188Z,17.81
2018-06-03T04:34:31.464Z,17.66
2018-06-03T04:36:59.641Z,17.64
2018-06-03T04:39:27.920Z,17.88
2018-06-03T04:41:56.205Z,17.96
2018-06-03T04:44:24.468Z,18.37
2018-06-03T04:46:52.642Z,18.73
2018-06-03T04:49:20.838Z,18.92
2018-06-03T04:51:49.297Z,18.91
2018-06-03T04:54:17.486Z,18.67
2018-06-03T04:56:46.184Z,18.73
2018-06-03T04:59:14.583Z,18.95
2018-06-03T05:01:42.830Z,19.12
2018-06-03T05:04:11.201Z,19.21
2018-06-03T05:06:39.385Z,19.31
2018-06-03T05:09:07.953Z,19.36
2018-06-03T05:11:36.238Z,19.02
2018-06-03T05:14:04.501Z,18.73
2018-06-03T05:16:32.685Z,18.72
2018-06-03T05:19:00.905Z,18.84
2018-06-03T05:21:29.146Z,19.13
2018-06-03T05:23:57.409Z,19.56
2018-06-03T05:26:25.594Z,19.98
2018-06-03T05:28:53.873Z,20.17
2018-06-03T05:31:22.237Z,20.10
2018-06-03T05:33:50.522Z,19.76
2018-06-03T05:36:18.802Z,19.67
2018-06-03T05:38:46.700Z,19.48
2018-06-03T05:41:14.594Z,19.86
2018-06-03T05:43:42.501Z,20.29
2018-06-03T05:46:10.478Z,20.15
2018-06-03T05:48:38.746Z,20.04
2018-06-03T05:51:07.021Z,19.97
2018-06-03T05:53:35.211Z,20.26
2018-06-03T05:56:03.677Z,20.61
2018-06-03T05:58:31.762Z,20.88
2018-06-03T06:00:59.921Z,21.20
2018-06-03T06:03:28.196Z,20.54
2018-06-03T06:05:56.382Z,20.33
2018-06-03T06:08:24.647Z,20.16
2018-06-03T06:10:52.942Z,20.24
2018-06-03T06:13:21.314Z,20.60
2018-06-03T06:15:49.492Z,20.89
2018-06-03T06:18:17.655Z,21.02
2018-06-03T06:20:46.498Z,21.04
2018-06-03T06:23:14.817Z,21.11
2018-06-03T06:25:43.096Z,21.29
2018-06-03T06:28:11.386Z,21.16
2018-06-03T06:30:39.662Z,21.25
2018-06-03T06:33:07.829Z,21.36
2018-06-03T06:35:36.197Z,21.47
2018-06-03T06:38:04.591Z,21.30
2018-06-03T06:40:32.970Z,21.14
2018-06-03T06:43:02.027Z,21.19
2018-06-03T06:45:30.244Z,21.22
2018-06-03T06:47:58.418Z,21.53
2018-06-03T06:50:26.958Z,21.58
2018-06-03T06:52:55.382Z,21.81
2018-06-03T06:55:23.763Z,21.79
2018-06-03T06:57:52.128Z,21.72
2018-06-03T07:00:20.424Z,21.90
2018-06-03T07:02:49.661Z,22.09
2018-06-03T07:05:18.408Z,22.10
2018-06-03T07:07:46.780Z,22.16
2018-06-03T07:10:15.053Z,22.57
2018-06-03T07:12:43.346Z,22.38
2018-06-03T07:15:11.622Z,22.34
2018-06-03T07:17:39.798Z,22.52
2018-06-03T07:20:07.970Z,22.37
2018-06-03T07:22:36.442Z,22.29
2018-06-03T07:25:04.826Z,22.42
2018-06-03T07:27:33.215Z,22.68
2018-06-03T07:30:01.486Z,22.84
2018-06-03T07:32:29.762Z,22.79
2018-06-03T07:34:58.038Z,22.93
2018-06-03T07:37:26.269Z,23.00
2018-06-03T07:39:54.694Z,23.49
2018-06-03T07:42:23.649Z,23.41
2018-06-03T07:44:52.077Z,23.08
2018-06-03T07:47:20.346Z,23.05
2018-06-03T07:49:48.530Z,23.16
2018-06-03T07:52:16.702Z,23.32
2018-06-03T07:54:45.181Z,23.42
2018-06-03T07:57:13.333Z,23.58
2018-06-03T07:59:41.756Z,23.49
2018-06-03T08:02:09.988Z,23.38
2018-06-03T08:04:38.446Z,23.72
2018-06-03T08:07:06.874Z,24.03
2018-06-03T08:09:35.150Z,24.05
2018-06-03T08:12:03.517Z,23.87
2018-06-03T08:14:31.801Z,23.93
2018-06-03T08:17:00.338Z,24.09
2018-06-03T08:19:28.559Z,24.18
2018-06-03T08:21:57.043Z,24.21
2018-06-03T08:24:25.637Z,24.42
2018-06-03T08:26:54.155Z,24.21
2018-06-03T08:32:52.533Z,24.81
2018-06-03T08:35:21.001Z,24.85
2018-06-03T08:37:49.401Z,24.97
2018-06-03T08:40:18.846Z,25.02
2018-06-03T08:42:47.182Z,25.15
2018-06-03T08:45:15.550Z,24.92
2018-06-03T08:47:43.882Z,25.07
2018-06-03T08:50:12.206Z,24.83
2018-06-03T08:52:40.611Z,24.94
2018-06-03T08:55:08.965Z,25.18
2018-06-03T08:57:37.137Z,25.34
2018-06-03T09:00:05.498Z,25.62
2018-06-03T09:02:33.887Z,25.72
2018-06-03T09:05:02.275Z,25.30
2018-06-03T09:07:30.454Z,25.60
2018-06-03T09:09:58.818Z,25.77
2018-06-03T09:12:27.001Z,26.00
2018-06-03T09:14:55.170Z,25.88
2018-06-03T09:17:23.557Z,26.02
2018-06-03T09:19:51.935Z,25.85
2018-06-03T09:22:20.216Z,25.66
2018-06-03T09:24:48.482Z,25.63
2018-06-03T09:27:16.813Z,25.72
2018-06-03T09:29:45.338Z,25.96
2018-06-03T09:32:13.609Z,26.07
2018-06-03T09:34:41.882Z,26.30
2018-06-03T09:37:10.296Z,26.37
2018-06-03T09:43:50.690Z,26.35
2018-06-03T09:46:19.936Z,26.57
2018-06-03T09:48:48.399Z,26.67
2018-06-03T09:51:16.775Z,26.74
2018-06-03T09:53:45.055Z,26.91
2018-06-03T09:56:13.331Z,26.87
2018-06-03T09:58:41.788Z,26.46
2018-06-03T10:01:10.073Z,26.63
2018-06-03T10:03:38.254Z,26.69
2018-06-03T10:06:06.837Z,26.63
2018-06-03T10:08:35.053Z,26.83
2018-06-03T10:11:03.322Z,26.70
2018-06-03T10:13:31.616Z,26.90
2018-06-03T10:15:59.989Z,27.03
2018-06-03T10:18:28.260Z,27.16
2018-06-03T10:20:56.534Z,27.40
2018-06-03T10:23:24.826Z,27.47
2018-06-03T10:25:52.986Z,27.55
2018-06-03T10:28:21.174Z,27.62
2018-06-03T10:30:49.433Z,27.84
2018-06-03T10:33:17.731Z,27.89
2018-06-03T10:35:46.006Z,27.93
2018-06-03T10:38:14.278Z,27.73
2018-06-03T10:40:42.558Z,27.74
2018-06-03T10:43:10.825Z,27.88
2018-06-03T10:45:39.012Z,28.11
2018-06-03T10:48:07.378Z,27.89
2018-06-03T10:50:35.726Z,28.16
2018-06-03T10:53:03.933Z,28.03
2018-06-03T10:55:32.099Z,27.96
2018-06-03T10:58:01.315Z,27.93
2018-06-03T11:00:29.486Z,28.16
2018-06-03T11:02:57.989Z,28.34
2018-06-03T11:05:26.653Z,28.39
2018-06-03T11:07:55.153Z,28.55
2018-06-03T11:10:23.414Z,28.65
2018-06-03T11:12:52.027Z,28.60
2018-06-03T11:15:20.378Z,28.62
2018-06-03T11:17:48.645Z,28.68
2018-06-03T11:20:17.778Z,28.62
2018-06-03T11:22:55.628Z,28.75
2018-06-03T11:25:31.197Z,28.88
2018-06-03T11:27:59.478Z,28.89
2018-06-03T11:30:27.961Z,29.04
2018-06-03T11:32:56.568Z,28.93
2018-06-03T11:35:25.017Z,28.93
2018-06-03T11:37:53.717Z,28.73
2018-06-03T11:40:22.897Z,28.68
2018-06-03T11:42:51.192Z,28.77
2018-06-03T11:45:19.559Z,28.71
2018-06-03T11:47:48.698Z,28.83
2018-06-03T11:50:17.026Z,28.64
2018-06-03T11:52:45.213Z,28.64
2018-06-03T11:55:13.474Z,28.62
2018-06-03T11:58:55.408Z,28.67
2018-06-03T12:01:24.435Z,28.84
2018-06-03T12:03:52.865Z,28.98
2018-06-03T12:06:21.342Z,29.10
2018-06-03T12:08:50.556Z,29.14
2018-06-03T12:11:19.057Z,29.18
2018-06-03T12:13:47.397Z,29.17
2018-06-03T12:16:15.621Z,29.09
2018-06-03T12:18:44.062Z,29.05
2018-06-03T12:21:12.241Z,28.99
2018-06-03T12:23:40.520Z,29.02
2018-06-03T12:26:08.694Z,29.10
2018-06-03T12:28:37.034Z,29.30
2018-06-03T12:31:05.230Z,29.50
2018-06-03T12:33:33.519Z,29.47
2018-06-03T12:36:01.813Z,29.47
2018-06-03T12:38:39.747Z,29.34
2018-06-03T12:41:09.205Z,29.06
2018-06-03T12:43:37.491Z,28.97
2018-06-03T12:46:05.864Z,28.69
2018-06-03T12:48:34.247Z,28.59
2018-06-03T12:51:02.519Z,28.17
2018-06-03T12:53:30.801Z,28.06
2018-06-03T12:55:58.970Z,27.90
2018-06-03T12:58:27.145Z,27.88
2018-06-03T13:00:55.410Z,27.83
2018-06-03T13:03:30.047Z,27.89
2018-06-03T13:05:59.335Z,28.07
2018-06-03T13:08:28.538Z,28.06
2018-06-03T13:10:56.821Z,28.15
2018-06-03T13:13:25.099Z,28.34
2018-06-03T13:15:53.298Z,28.23
2018-06-03T13:18:21.553Z,28.29
2018-06-03T13:20:49.818Z,28.15
2018-06-03T13:23:18.010Z,27.93
2018-06-03T13:25:46.170Z,27.81
2018-06-03T13:28:14.563Z,27.93
2018-06-03T13:30:42.713Z,28.08
2018-06-03T13:33:11.009Z,27.93
2018-06-03T13:35:39.273Z,27.92
2018-06-03T13:38:07.857Z,27.99
2018-06-03T13:40:36.025Z,28.06
2018-06-03T13:43:04.454Z,28.01
2018-06-03T13:45:32.670Z,27.65
2018-06-03T13:48:01.017Z,27.98
2018-06-03T13:50:29.349Z,27.85
2018-06-03T13:52:57.513Z,28.02
2018-06-03T13:55:25.686Z,28.09
2018-06-03T13:57:54.007Z,28.14
2018-06-03T14:00:22.158Z,27.72
2018-06-03T14:02:50.333Z,27.96
2018-06-03T14:05:18.498Z,27.85
2018-06-03T14:07:47.700Z,27.73
2018-06-03T14:10:15.874Z,28.10
2018-06-03T14:12:44.136Z,27.99
2018-06-03T14:15:12.429Z,28.20
2018-06-03T14:17:40.698Z,28.26
2018-06-03T14:20:08.983Z,28.20
2018-06-03T14:22:37.245Z,28.25
2018-06-03T14:25:05.534Z,28.22
2018-06-03T14:27:33.798Z,28.33
2018-06-03T14:30:02.073Z,27.93
2018-06-03T14:32:30.364Z,28.26
2018-06-03T14:34:58.641Z,28.09
2018-06-03T14:37:26.968Z,28.14
2018-06-03T14:39:55.187Z,28.03
2018-06-03T14:42:23.477Z,27.72
2018-06-03T14:44:51.740Z,27.95
2018-06-03T14:47:20.023Z,27.84
2018-06-03T14:49:48.321Z,28.05
2018-06-03T14:52:16.569Z,28.18
2018-06-03T14:54:44.733Z,28.15
2018-06-03T14:57:12.917Z,27.89
2018-06-03T14:59:41.045Z,27.48
2018-06-03T15:02:09.226Z,27.73
2018-06-03T15:04:37.386Z,28.00
2018-06-03T15:07:05.817Z,27.77
2018-06-03T15:09:34.335Z,27.87
2018-06-03T15:12:02.638Z,27.86
2018-06-03T15:14:31.025Z,27.95
2018-06-03T15:16:59.670Z,27.80
2018-06-03T15:19:27.991Z,27.95
2018-06-03T15:21:56.279Z,27.85
2018-06-03T15:24:24.649Z,27.90
2018-06-03T15:26:54.064Z,27.78
2018-06-03T15:29:22.251Z,28.02
2018-06-03T15:31:50.434Z,27.78
2018-06-03T15:34:18.814Z,27.81
2018-06-03T15:36:46.994Z,27.67
2018-06-03T15:39:15.373Z,27.62
2018-06-03T15:41:43.754Z,27.37
2018-06-03T15:44:12.113Z,27.54
2018-06-03T15:46:41.714Z,27.46
2018-06-03T15:49:10.533Z,27.56
2018-06-03T15:51:42.643Z,27.59
2018-06-03T15:54:11.383Z,27.51
2018-06-03T15:56:39.688Z,27.25
2018-06-03T15:59:07.839Z,26.95
2018-06-03T16:01:36.130Z,26.51
2018-06-03T16:04:04.297Z,26.54
2018-06-03T16:06:32.518Z,26.90
2018-06-03T16:09:02.242Z,27.06
2018-06-03T16:11:31.105Z,27.20
2018-06-03T16:14:00.521Z,26.98
2018-06-03T16:16:28.874Z,27.10
2018-06-03T16:18:57.184Z,27.10
2018-06-03T16:21:25.671Z,26.90
2018-06-03T16:23:54.217Z,26.67
2018-06-03T16:26:23.094Z,26.85
2018-06-03T16:28:51.314Z,26.81
2018-06-03T16:31:19.619Z,26.55
2018-06-03T16:33:48.062Z,26.44
2018-06-03T16:36:16.878Z,26.31
2018-06-03T16:38:45.237Z,26.44
2018-06-03T16:41:13.377Z,26.46
2018-06-03T16:43:41.773Z,26.79
2018-06-03T16:46:09.933Z,26.69
2018-06-03T16:48:38.385Z,26.83
2018-06-03T16:51:06.500Z,26.90
2018-06-03T16:53:34.670Z,26.74
2018-06-03T16:56:02.980Z,26.54
2018-06-03T16:58:31.249Z,26.51
2018-06-03T17:00:59.562Z,26.32
2018-06-03T17:03:27.874Z,26.37
2018-06-03T17:05:56.068Z,26.34
2018-06-03T17:08:26.049Z,26.24
2018-06-03T17:10:54.341Z,26.10
2018-06-03T17:13:22.687Z,26.29
2018-06-03T17:15:50.805Z,26.46
2018-06-03T17:18:20.347Z,26.56
2018-06-03T17:20:49.283Z,26.59
2018-06-03T17:23:18.313Z,26.42
2018-06-03T17:25:46.827Z,26.44
2018-06-03T17:28:23.191Z,26.24
2018-06-03T17:30:57.790Z,26.15
2018-06-03T17:33:26.057Z,26.22
2018-06-03T17:35:54.544Z,26.19
2018-06-03T17:38:22.813Z,26.19
2018-06-03T17:40:51.085Z,26.13
2018-06-03T17:43:53.165Z,26.08
2018-06-03T17:47:07.166Z,26.07
2018-06-03T17:49:41.934Z,25.99
2018-06-03T17:52:10.178Z,25.79
2018-06-03T17:54:38.466Z,25.80
2018-06-03T17:57:06.730Z,25.83
2018-06-03T17:59:34.807Z,25.62
2018-06-03T18:02:03.078Z,25.67
2018-06-03T18:04:31.267Z,25.52
2018-06-03T18:06:59.305Z,25.62
2018-06-03T18:09:27.719Z,25.52
2018-06-03T18:14:56.901Z,25.64
2018-06-03T18:17:25.690Z,25.28
2018-06-03T18:19:54.021Z,24.92
2018-06-03T18:22:24.266Z,24.93
2018-06-03T18:24:52.583Z,24.93
2018-06-03T18:27:20.902Z,24.90
2018-06-03T18:29:48.921Z,24.70
2018-06-03T18:32:17.149Z,24.67
2018-06-03T18:34:45.317Z,24.59
2018-06-03T18:37:33.314Z,24.60
2018-06-03T18:40:30.513Z,24.43
2018-06-03T18:43:42.101Z,24.75
2018-06-03T18:46:21.862Z,24.64
2018-06-03T18:48:56.593Z,24.23
2018-06-03T18:51:47.902Z,24.10
2018-06-03T18:54:34.738Z,24.12
2018-06-03T18:57:06.762Z,24.10
2018-06-03T18:59:35.408Z,23.95
2018-06-03T19:02:04.027Z,23.82
2018-06-03T19:04:32.353Z,23.79
2018-06-03T19:07:00.952Z,23.84
2018-06-03T19:09:29.773Z,23.87
2018-06-03T19:11:58.022Z,23.77
2018-06-03T19:14:26.430Z,23.88
2018-06-03T19:16:54.574Z,23.93
2018-06-03T19:19:22.858Z,23.93
2018-06-03T19:21:51.009Z,23.81
2018-06-03T19:24:19.192Z,23.67
2018-06-03T19:26:47.510Z,23.54
2018-06-03T19:29:15.545Z,23.53
2018-06-03T19:31:43.514Z,23.53
2018-06-03T19:34:14.608Z,23.40
2018-06-03T19:36:42.826Z,23.41
2018-06-03T19:39:12.661Z,23.55
2018-06-03T19:41:41.178Z,23.42
2018-06-03T19:44:09.503Z,23.54
2018-06-03T19:46:37.779Z,23.32
2018-06-03T19:49:07.632Z,23.15
2018-06-03T19:52:15.566Z,23.19
2018-06-03T19:54:55.764Z,23.20
2018-06-03T19:57:45.658Z,23.18
2018-06-03T20:00:13.953Z,23.18
2018-06-03T20:03:14.976Z,23.37
2018-06-03T20:05:44.298Z,23.27
2018-06-03T20:08:12.630Z,23.12
2018-06-03T20:10:41.018Z,23.17
2018-06-03T20:13:09.546Z,23.18
2018-06-03T20:15:37.783Z,23.07
2018-06-03T20:18:06.372Z,23.16
2018-06-03T20:20:34.541Z,23.36
2018-06-03T20:23:03.079Z,23.18
2018-06-03T20:25:31.288Z,23.02
2018-06-03T20:28:06.877Z,22.81
2018-06-03T20:30:35.539Z,22.84
2018-06-03T20:33:04.003Z,22.97
2018-06-03T20:35:32.319Z,23.03
2018-06-03T20:38:00.571Z,22.96
2018-06-03T20:40:28.797Z,22.89
2018-06-03T20:42:57.071Z,22.89
2018-06-03T20:45:25.625Z,22.97
2018-06-03T20:47:53.780Z,23.07
2018-06-03T20:50:22.904Z,23.14
2018-06-03T20:52:51.254Z,22.99
2018-06-03T20:55:19.573Z,23.03
2018-06-03T20:57:47.832Z,23.17
2018-06-03T21:00:16.185Z,23.04
2018-06-03T21:02:44.461Z,22.92
2018-06-03T21:05:12.775Z,22.76
2018-06-03T21:07:41.000Z,22.53
2018-06-03T21:10:09.404Z,22.43
2018-06-03T21:12:37.736Z,22.27
2018-06-03T21:15:06.055Z,22.41
2018-06-03T21:17:34.231Z,22.43
2018-06-03T21:20:02.713Z,22.46
2018-06-03T21:22:30.871Z,22.79
2018-06-03T21:24:59.082Z,22.75
2018-06-03T21:27:27.343Z,22.82
2018-06-03T21:29:55.714Z,22.84
2018-06-03T21:32:24.022Z,22.81
2018-06-03T21:34:52.266Z,22.68
2018-06-03T21:37:20.430Z,22.50
2018-06-03T21:39:48.866Z,22.38
2018-06-03T21:42:17.098Z,22.44
2018-06-03T21:44:45.377Z,22.57
2018-06-03T21:47:13.581Z,22.54
2018-06-03T21:49:41.938Z,22.50
2018-06-03T21:52:10.210Z,22.52
2018-06-03T21:54:38.626Z,22.21
2018-06-03T21:57:06.855Z,22.23
2018-06-03T21:59:35.161Z,22.10
2018-06-03T22:02:03.458Z,22.14
2018-06-03T22:04:32.190Z,22.04
2018-06-03T22:07:00.370Z,22.11
2018-06-03T22:09:28.697Z,22.18
2018-06-03T22:11:57.021Z,21.85
2018-06-03T22:14:25.697Z,21.71
2018-06-03T22:16:53.919Z,21.54
2018-06-03T22:19:22.279Z,21.53
2018-06-03T22:21:50.653Z,21.51
2018-06-03T22:24:19.009Z,21.53
2018-06-03T22:26:47.508Z,21.26
2018-06-03T22:29:15.688Z,21.20
2018-06-03T22:31:44.096Z,21.19
2018-06-03T22:34:12.446Z,21.19
2018-06-03T22:36:40.714Z,21.25
2018-06-03T22:39:09.134Z,21.22
2018-06-03T22:41:37.069Z,21.21
2018-06-03T22:44:05.445Z,21.01
2018-06-03T22:46:33.590Z,20.87
2018-06-03T22:49:01.997Z,20.82
2018-06-03T22:51:30.174Z,20.81
2018-06-03T22:53:58.498Z,21.05
2018-06-03T22:56:36.302Z,21.07
2018-06-03T22:59:04.454Z,21.02
2018-06-03T23:01:32.605Z,20.92
2018-06-03T23:04:00.785Z,21.06
2018-06-03T23:06:29.098Z,20.91
2018-06-03T23:08:57.345Z,20.78
2018-06-03T23:11:25.585Z,20.74
2018-06-03T23:13:53.814Z,20.93
2018-06-03T23:16:21.944Z,20.86
2018-06-03T23:18:50.370Z,20.49
2018-06-03T23:21:18.882Z,20.59
2018-06-03T23:23:47.398Z,20.64
2018-06-03T23:26:15.592Z,20.79
2018-06-03T23:28:43.981Z,20.39
2018-06-03T23:31:12.229Z,20.42
2018-06-03T23:33:40.611Z,20.69
2018-06-03T23:36:08.811Z,20.65
2018-06-03T23:38:36.962Z,20.46
2018-06-03T23:41:05.335Z,20.61
2018-06-03T23:43:33.665Z,20.41
2018-06-03T23:46:01.983Z,20.48
2018-06-03T23:48:30.299Z,20.83
2018-06-03T23:50:58.658Z,20.75
2018-06-03T23:53:27.121Z,20.48
2018-06-03T23:55:55.310Z,20.44
2018-06-03T23:58:23.626Z,20.40
